Terminal Aerodrome Forecast
Issued by NWS

Home | Current Version | Previous Version | Text Only | Print | Product List | Glossary On
Versions: 1 2 3 4 5 6 7 8 9 10 11 12 13 14 15
679
FTPA31 PHFO 241515 AAA
TAFHMK
TAF AMD
PHMK 241515Z 2415/2512 03010G16KT P6SM SCT035 SCT250
     FM250700 02005KT P6SM FEW030=

USA.gov is the U.S. government's official web portal to all federal, state and local government web resources and services.